sensor_id;sensor_type;location;lat;lon;timestamp;pressure;altitude;pressure_sealevel;temperature;humidity
12219;BME280;6172;42.646;23.344;2024-02-26T00:02:16;94181.13;;;6.72;100.00
12219;BME280;6172;42.646;23.344;2024-02-26T00:04:44;94188.03;;;6.77;100.00
12219;BME280;6172;42.646;23.344;2024-02-26T00:07:11;94183.72;;;6.86;100.00
12219;BME280;6172;42.646;23.344;2024-02-26T00:09:39;94178.66;;;6.88;100.00
12219;BME280;6172;42.646;23.344;2024-02-26T00:12:06;94167.41;;;6.90;100.00
12219;BME280;6172;42.646;23.344;2024-02-26T00:14:35;94166.59;;;6.93;100.00
12219;BME280;6172;42.646;23.344;2024-02-26T00:17:03;94179.72;;;6.98;100.00
12219;BME280;6172;42.646;23.344;2024-02-26T00:19:30;94180.69;;;6.81;100.00
12219;BME280;6172;42.646;23.344;2024-02-26T00:21:57;94174.72;;;6.52;100.00
12219;BME280;6172;42.646;23.344;2024-02-26T00:24:25;94183.22;;;6.54;100.00
12219;BME280;6172;42.646;23.344;2024-02-26T00:26:52;94180.91;;;6.56;100.00
12219;BME280;6172;42.646;23.344;2024-02-26T00:29:21;94185.88;;;6.61;100.00
12219;BME280;6172;42.646;23.344;2024-02-26T00:31:50;94181.66;;;6.57;100.00
12219;BME280;6172;42.646;23.344;2024-02-26T00:34:18;94174.47;;;6.36;100.00
12219;BME280;6172;42.646;23.344;2024-02-26T00:36:45;94164.72;;;6.42;100.00
12219;BME280;6172;42.646;23.344;2024-02-26T00:39:12;94166.28;;;6.43;100.00
12219;BME280;6172;42.646;23.344;2024-02-26T00:41:42;94169.78;;;6.40;100.00
12219;BME280;6172;42.646;23.344;2024-02-26T00:44:09;94158.09;;;6.54;100.00
12219;BME280;6172;42.646;23.344;2024-02-26T00:46:37;94160.06;;;6.46;100.00
12219;BME280;6172;42.646;23.344;2024-02-26T00:49:06;94156.97;;;6.44;100.00
12219;BME280;6172;42.646;23.344;2024-02-26T00:51:33;94161.16;;;6.59;100.00
12219;BME280;6172;42.646;23.344;2024-02-26T00:54:01;94159.69;;;6.44;100.00
12219;BME280;6172;42.646;23.344;2024-02-26T00:56:34;94156.53;;;6.56;100.00
12219;BME280;6172;42.646;23.344;2024-02-26T00:59:01;94132.81;;;6.67;100.00
12219;BME280;6172;42.646;23.344;2024-02-26T01:01:29;94139.34;;;6.73;100.00
12219;BME280;6172;42.646;23.344;2024-02-26T01:03:56;94140.63;;;6.62;100.00
12219;BME280;6172;42.646;23.344;2024-02-26T01:06:25;94139.06;;;6.61;100.00
12219;BME280;6172;42.646;23.344;2024-02-26T01:08:52;94139.91;;;6.54;100.00
12219;BME280;6172;42.646;23.344;2024-02-26T01:11:19;94143.59;;;6.74;100.00
12219;BME280;6172;42.646;23.344;2024-02-26T01:13:47;94136.72;;;6.63;100.00
12219;BME280;6172;42.646;23.344;2024-02-26T01:16:14;94133.22;;;6.66;100.00
12219;BME280;6172;42.646;23.344;2024-02-26T01:18:43;94140.25;;;6.60;100.00
12219;BME280;6172;42.646;23.344;2024-02-26T01:21:10;94140.63;;;6.58;100.00
12219;BME280;6172;42.646;23.344;2024-02-26T01:23:39;94131.28;;;6.66;100.00
12219;BME280;6172;42.646;23.344;2024-02-26T01:26:08;94137.19;;;6.54;100.00
12219;BME280;6172;42.646;23.344;2024-02-26T01:28:56;94125.97;;;6.56;100.00
12219;BME280;6172;42.646;23.344;2024-02-26T01:31:24;94138.66;;;6.66;100.00
12219;BME280;6172;42.646;23.344;2024-02-26T01:33:52;94136.66;;;6.70;100.00
12219;BME280;6172;42.646;23.344;2024-02-26T01:36:20;94134.41;;;6.65;100.00
12219;BME280;6172;42.646;23.344;2024-02-26T01:38:49;94130.03;;;6.74;100.00
12219;BME280;6172;42.646;23.344;2024-02-26T01:41:23;94122.25;;;6.80;100.00
12219;BME280;6172;42.646;23.344;2024-02-26T01:43:52;94133.13;;;6.76;100.00
12219;BME280;6172;42.646;23.344;2024-02-26T01:46:19;94126.94;;;6.76;100.00
12219;BME280;6172;42.646;23.344;2024-02-26T01:48:47;94130.06;;;6.71;100.00
12219;BME280;6172;42.646;23.344;2024-02-26T01:51:17;94125.41;;;6.75;100.00
12219;BME280;6172;42.646;23.344;2024-02-26T01:53:45;94123.44;;;6.79;100.00
12219;BME280;6172;42.646;23.344;2024-02-26T01:56:14;94128.13;;;6.71;100.00
12219;BME280;6172;42.646;23.344;2024-02-26T01:58:47;94112.28;;;6.73;100.00
12219;BME280;6172;42.646;23.344;2024-02-26T02:01:16;94113.78;;;6.74;100.00
12219;BME280;6172;42.646;23.344;2024-02-26T02:03:45;94119.84;;;6.85;100.00
12219;BME280;6172;42.646;23.344;2024-02-26T02:06:13;94117.91;;;6.89;100.00
12219;BME280;6172;42.646;23.344;2024-02-26T02:08:42;94120.53;;;6.96;100.00
12219;BME280;6172;42.646;23.344;2024-02-26T02:11:11;94107.78;;;6.93;100.00
12219;BME280;6172;42.646;23.344;2024-02-26T02:13:45;94109.28;;;6.98;100.00
12219;BME280;6172;42.646;23.344;2024-02-26T02:16:12;94104.28;;;6.96;100.00
12219;BME280;6172;42.646;23.344;2024-02-26T02:18:41;94108.53;;;6.94;100.00
12219;BME280;6172;42.646;23.344;2024-02-26T02:21:10;94115.47;;;6.98;100.00
12219;BME280;6172;42.646;23.344;2024-02-26T02:23:37;94114.97;;;7.07;100.00
12219;BME280;6172;42.646;23.344;2024-02-26T02:26:05;94110.81;;;6.99;100.00
12219;BME280;6172;42.646;23.344;2024-02-26T02:28:34;94112.09;;;6.87;100.00
12219;BME280;6172;42.646;23.344;2024-02-26T02:31:01;94115.53;;;6.91;100.00
12219;BME280;6172;42.646;23.344;2024-02-26T02:33:30;94106.00;;;6.80;100.00
12219;BME280;6172;42.646;23.344;2024-02-26T02:35:57;94115.72;;;6.74;100.00
12219;BME280;6172;42.646;23.344;2024-02-26T02:38:27;94127.31;;;6.78;100.00
12219;BME280;6172;42.646;23.344;2024-02-26T02:40:55;94124.22;;;6.79;100.00
12219;BME280;6172;42.646;23.344;2024-02-26T02:43:23;94114.59;;;6.71;100.00
12219;BME280;6172;42.646;23.344;2024-02-26T02:45:51;94113.88;;;6.23;100.00
12219;BME280;6172;42.646;23.344;2024-02-26T02:48:19;94116.63;;;6.16;100.00
12219;BME280;6172;42.646;23.344;2024-02-26T02:50:47;94130.59;;;6.11;100.00
12219;BME280;6172;42.646;23.344;2024-02-26T02:53:15;94130.13;;;6.20;100.00
12219;BME280;6172;42.646;23.344;2024-02-26T02:55:47;94130.28;;;6.46;100.00
12219;BME280;6172;42.646;23.344;2024-02-26T02:58:15;94136.06;;;6.52;100.00
12219;BME280;6172;42.646;23.344;2024-02-26T03:00:42;94129.94;;;6.41;100.00
12219;BME280;6172;42.646;23.344;2024-02-26T03:03:10;94126.03;;;6.45;100.00
12219;BME280;6172;42.646;23.344;2024-02-26T03:05:37;94132.56;;;6.55;100.00
12219;BME280;6172;42.646;23.344;2024-02-26T03:08:04;94136.88;;;6.45;100.00
12219;BME280;6172;42.646;23.344;2024-02-26T03:10:32;94137.97;;;6.51;100.00
12219;BME280;6172;42.646;23.344;2024-02-26T03:13:01;94143.41;;;6.55;100.00
12219;BME280;6172;42.646;23.344;2024-02-26T03:15:29;94131.31;;;6.63;100.00
12219;BME280;6172;42.646;23.344;2024-02-26T03:17:56;94125.09;;;6.69;100.00
12219;BME280;6172;42.646;23.344;2024-02-26T03:20:25;94128.50;;;6.73;100.00
12219;BME280;6172;42.646;23.344;2024-02-26T03:22:52;94119.53;;;6.80;100.00
12219;BME280;6172;42.646;23.344;2024-02-26T03:25:27;94119.13;;;6.81;100.00
12219;BME280;6172;42.646;23.344;2024-02-26T03:27:54;94108.69;;;6.80;100.00
12219;BME280;6172;42.646;23.344;2024-02-26T03:30:24;94111.38;;;6.83;100.00
12219;BME280;6172;42.646;23.344;2024-02-26T03:32:51;94117.13;;;6.89;100.00
12219;BME280;6172;42.646;23.344;2024-02-26T03:35:20;94115.00;;;6.70;100.00
12219;BME280;6172;42.646;23.344;2024-02-26T03:37:47;94109.19;;;6.71;100.00
12219;BME280;6172;42.646;23.344;2024-02-26T03:40:16;94112.84;;;6.54;100.00
12219;BME280;6172;42.646;23.344;2024-02-26T03:42:45;94114.69;;;6.17;100.00
12219;BME280;6172;42.646;23.344;2024-02-26T03:45:12;94115.38;;;5.80;100.00
12219;BME280;6172;42.646;23.344;2024-02-26T03:47:44;94111.53;;;5.74;100.00
12219;BME280;6172;42.646;23.344;2024-02-26T03:50:12;94102.69;;;5.66;100.00
12219;BME280;6172;42.646;23.344;2024-02-26T03:52:42;94109.91;;;5.84;100.00
12219;BME280;6172;42.646;23.344;2024-02-26T03:55:11;94115.25;;;5.94;100.00
12219;BME280;6172;42.646;23.344;2024-02-26T03:57:38;94105.63;;;5.93;100.00
12219;BME280;6172;42.646;23.344;2024-02-26T04:00:07;94115.53;;;6.10;100.00
12219;BME280;6172;42.646;23.344;2024-02-26T04:02:36;94117.78;;;6.15;100.00
12219;BME280;6172;42.646;23.344;2024-02-26T04:05:09;94110.84;;;6.14;100.00
12219;BME280;6172;42.646;23.344;2024-02-26T04:07:37;94110.19;;;6.00;100.00
12219;BME280;6172;42.646;23.344;2024-02-26T04:10:09;94113.22;;;6.05;100.00
12219;BME280;6172;42.646;23.344;2024-02-26T04:12:38;94105.56;;;6.00;100.00
12219;BME280;6172;42.646;23.344;2024-02-26T04:15:07;94110.47;;;6.12;100.00
12219;BME280;6172;42.646;23.344;2024-02-26T04:17:35;94094.31;;;6.05;100.00
12219;BME280;6172;42.646;23.344;2024-02-26T04:20:06;94096.25;;;6.05;100.00
12219;BME280;6172;42.646;23.344;2024-02-26T04:22:34;94108.22;;;6.04;100.00
12219;BME280;6172;42.646;23.344;2024-02-26T04:25:01;94105.84;;;6.13;100.00
12219;BME280;6172;42.646;23.344;2024-02-26T04:27:28;94098.50;;;6.13;100.00
12219;BME280;6172;42.646;23.344;2024-02-26T04:29:56;94097.66;;;6.20;100.00
12219;BME280;6172;42.646;23.344;2024-02-26T04:32:23;94092.16;;;6.30;100.00
12219;BME280;6172;42.646;23.344;2024-02-26T04:34:51;94087.88;;;6.33;100.00
12219;BME280;6172;42.646;23.344;2024-02-26T04:37:21;94088.53;;;6.44;100.00
12219;BME280;6172;42.646;23.344;2024-02-26T04:39:50;94099.81;;;6.39;100.00
12219;BME280;6172;42.646;23.344;2024-02-26T04:42:18;94105.97;;;6.39;100.00
12219;BME280;6172;42.646;23.344;2024-02-26T04:44:45;94095.53;;;6.41;100.00
12219;BME280;6172;42.646;23.344;2024-02-26T04:47:13;94093.50;;;6.52;100.00
12219;BME280;6172;42.646;23.344;2024-02-26T04:49:41;94093.22;;;6.43;100.00
12219;BME280;6172;42.646;23.344;2024-02-26T04:52:11;94094.47;;;6.32;100.00
12219;BME280;6172;42.646;23.344;2024-02-26T04:54:40;94091.31;;;6.40;100.00
12219;BME280;6172;42.646;23.344;2024-02-26T04:57:08;94100.53;;;6.46;100.00
12219;BME280;6172;42.646;23.344;2024-02-26T04:59:36;94098.53;;;6.50;100.00
12219;BME280;6172;42.646;23.344;2024-02-26T05:02:04;94105.13;;;6.53;100.00
12219;BME280;6172;42.646;23.344;2024-02-26T05:04:31;94114.34;;;6.59;100.00
12219;BME280;6172;42.646;23.344;2024-02-26T05:06:59;94119.31;;;6.20;100.00
12219;BME280;6172;42.646;23.344;2024-02-26T05:09:26;94105.28;;;5.84;100.00
12219;BME280;6172;42.646;23.344;2024-02-26T05:11:55;94126.03;;;6.01;100.00
12219;BME280;6172;42.646;23.344;2024-02-26T05:14:24;94135.19;;;6.14;100.00
12219;BME280;6172;42.646;23.344;2024-02-26T05:16:51;94130.91;;;6.20;100.00
12219;BME280;6172;42.646;23.344;2024-02-26T05:19:18;94128.94;;;6.21;100.00
12219;BME280;6172;42.646;23.344;2024-02-26T05:21:45;94132.72;;;6.34;100.00
12219;BME280;6172;42.646;23.344;2024-02-26T05:24:14;94137.72;;;6.35;100.00
12219;BME280;6172;42.646;23.344;2024-02-26T05:26:45;94126.63;;;6.19;100.00
12219;BME280;6172;42.646;23.344;2024-02-26T05:29:15;94126.56;;;6.30;100.00
12219;BME280;6172;42.646;23.344;2024-02-26T05:31:42;94140.09;;;6.30;100.00
12219;BME280;6172;42.646;23.344;2024-02-26T05:34:09;94139.72;;;6.28;100.00
12219;BME280;6172;42.646;23.344;2024-02-26T05:36:36;94142.09;;;6.22;100.00
12219;BME280;6172;42.646;23.344;2024-02-26T05:39:04;94150.13;;;6.29;100.00
12219;BME280;6172;42.646;23.344;2024-02-26T05:41:31;94152.50;;;6.27;100.00
12219;BME280;6172;42.646;23.344;2024-02-26T05:43:58;94156.72;;;6.28;100.00
12219;BME280;6172;42.646;23.344;2024-02-26T05:46:27;94154.75;;;6.32;100.00
12219;BME280;6172;42.646;23.344;2024-02-26T05:48:54;94150.59;;;6.24;100.00
12219;BME280;6172;42.646;23.344;2024-02-26T05:51:22;94160.09;;;6.43;100.00
12219;BME280;6172;42.646;23.344;2024-02-26T05:53:50;94153.94;;;6.39;100.00
12219;BME280;6172;42.646;23.344;2024-02-26T05:56:21;94148.56;;;6.35;100.00
12219;BME280;6172;42.646;23.344;2024-02-26T05:58:51;94157.38;;;6.46;100.00
12219;BME280;6172;42.646;23.344;2024-02-26T06:01:21;94153.09;;;6.49;100.00
12219;BME280;6172;42.646;23.344;2024-02-26T06:03:52;94161.66;;;6.40;100.00
12219;BME280;6172;42.646;23.344;2024-02-26T06:06:19;94169.31;;;6.52;100.00
12219;BME280;6172;42.646;23.344;2024-02-26T06:08:48;94162.41;;;6.41;100.00
12219;BME280;6172;42.646;23.344;2024-02-26T06:11:15;94170.69;;;6.23;100.00
12219;BME280;6172;42.646;23.344;2024-02-26T06:13:42;94176.34;;;6.39;100.00
12219;BME280;6172;42.646;23.344;2024-02-26T06:16:09;94173.81;;;6.22;100.00
12219;BME280;6172;42.646;23.344;2024-02-26T06:18:36;94182.31;;;6.20;100.00
12219;BME280;6172;42.646;23.344;2024-02-26T06:21:09;94171.38;;;6.31;100.00
12219;BME280;6172;42.646;23.344;2024-02-26T06:23:36;94175.66;;;6.28;100.00
12219;BME280;6172;42.646;23.344;2024-02-26T06:26:13;94177.31;;;6.15;100.00
12219;BME280;6172;42.646;23.344;2024-02-26T06:28:42;94170.06;;;6.02;100.00
12219;BME280;6172;42.646;23.344;2024-02-26T06:31:10;94172.75;;;6.05;100.00
12219;BME280;6172;42.646;23.344;2024-02-26T06:33:37;94183.84;;;6.21;100.00
12219;BME280;6172;42.646;23.344;2024-02-26T06:36:07;94169.63;;;6.10;100.00
12219;BME280;6172;42.646;23.344;2024-02-26T06:38:34;94173.88;;;6.11;100.00
12219;BME280;6172;42.646;23.344;2024-02-26T06:41:01;94178.88;;;6.13;100.00
12219;BME280;6172;42.646;23.344;2024-02-26T06:43:28;94183.47;;;6.19;100.00
12219;BME280;6172;42.646;23.344;2024-02-26T06:45:55;94176.84;;;6.27;100.00
12219;BME280;6172;42.646;23.344;2024-02-26T06:48:25;94181.00;;;6.39;100.00
12219;BME280;6172;42.646;23.344;2024-02-26T06:50:52;94184.91;;;6.34;100.00
12219;BME280;6172;42.646;23.344;2024-02-26T06:53:22;94179.09;;;6.32;100.00
12219;BME280;6172;42.646;23.344;2024-02-26T06:55:49;94173.41;;;6.23;100.00
12219;BME280;6172;42.646;23.344;2024-02-26T06:58:16;94173.75;;;6.29;100.00
12219;BME280;6172;42.646;23.344;2024-02-26T07:00:44;94177.97;;;6.30;100.00
12219;BME280;6172;42.646;23.344;2024-02-26T07:03:11;94182.59;;;6.36;100.00
12219;BME280;6172;42.646;23.344;2024-02-26T07:05:39;94186.31;;;6.49;100.00
12219;BME280;6172;42.646;23.344;2024-02-26T07:08:06;94179.75;;;6.50;100.00
12219;BME280;6172;42.646;23.344;2024-02-26T07:10:35;94189.34;;;6.62;100.00
12219;BME280;6172;42.646;23.344;2024-02-26T07:13:03;94180.44;;;6.61;100.00
12219;BME280;6172;42.646;23.344;2024-02-26T07:15:31;94183.81;;;6.76;100.00
12219;BME280;6172;42.646;23.344;2024-02-26T07:18:00;94193.84;;;6.79;100.00
12219;BME280;6172;42.646;23.344;2024-02-26T07:20:29;94187.47;;;6.99;100.00
12219;BME280;6172;42.646;23.344;2024-02-26T07:22:57;94190.00;;;7.13;100.00
12219;BME280;6172;42.646;23.344;2024-02-26T07:25:25;94180.41;;;7.05;100.00
12219;BME280;6172;42.646;23.344;2024-02-26T07:27:56;94179.91;;;7.17;100.00
12219;BME280;6172;42.646;23.344;2024-02-26T07:30:24;94183.84;;;7.43;100.00
12219;BME280;6172;42.646;23.344;2024-02-26T07:32:51;94179.94;;;7.47;100.00
12219;BME280;6172;42.646;23.344;2024-02-26T07:35:18;94188.63;;;7.65;100.00
12219;BME280;6172;42.646;23.344;2024-02-26T07:37:48;94176.59;;;7.66;100.00
12219;BME280;6172;42.646;23.344;2024-02-26T07:40:16;94182.56;;;7.54;100.00
12219;BME280;6172;42.646;23.344;2024-02-26T07:42:45;94181.03;;;7.83;100.00
12219;BME280;6172;42.646;23.344;2024-02-26T07:45:15;94186.34;;;7.90;100.00
12219;BME280;6172;42.646;23.344;2024-02-26T07:47:45;94175.41;;;7.97;100.00
12219;BME280;6172;42.646;23.344;2024-02-26T07:50:12;94186.34;;;7.90;100.00
12219;BME280;6172;42.646;23.344;2024-02-26T07:52:39;94182.03;;;8.23;100.00
12219;BME280;6172;42.646;23.344;2024-02-26T07:55:07;94166.44;;;8.27;100.00
12219;BME280;6172;42.646;23.344;2024-02-26T07:57:34;94178.78;;;8.32;100.00
12219;BME280;6172;42.646;23.344;2024-02-26T08:00:03;94164.13;;;8.52;100.00
12219;BME280;6172;42.646;23.344;2024-02-26T08:02:34;94157.53;;;8.53;100.00
12219;BME280;6172;42.646;23.344;2024-02-26T08:05:02;94151.31;;;8.53;100.00
12219;BME280;6172;42.646;23.344;2024-02-26T08:07:30;94155.84;;;8.59;100.00
12219;BME280;6172;42.646;23.344;2024-02-26T08:09:57;94142.59;;;8.65;100.00
12219;BME280;6172;42.646;23.344;2024-02-26T08:12:24;94158.16;;;8.84;100.00
12219;BME280;6172;42.646;23.344;2024-02-26T08:14:51;94138.31;;;8.87;100.00
12219;BME280;6172;42.646;23.344;2024-02-26T08:17:19;94156.09;;;8.91;100.00
12219;BME280;6172;42.646;23.344;2024-02-26T08:19:47;94151.84;;;9.10;100.00
12219;BME280;6172;42.646;23.344;2024-02-26T08:22:15;94149.47;;;8.92;100.00
12219;BME280;6172;42.646;23.344;2024-02-26T08:24:43;94153.47;;;9.07;100.00
12219;BME280;6172;42.646;23.344;2024-02-26T08:27:11;94154.38;;;9.20;100.00
12219;BME280;6172;42.646;23.344;2024-02-26T08:29:38;94149.03;;;9.36;100.00
12219;BME280;6172;42.646;23.344;2024-02-26T08:32:06;94141.97;;;9.39;100.00
12219;BME280;6172;42.646;23.344;2024-02-26T08:34:34;94151.47;;;9.50;100.00
12219;BME280;6172;42.646;23.344;2024-02-26T08:37:03;94145.19;;;9.34;100.00
12219;BME280;6172;42.646;23.344;2024-02-26T08:39:31;94150.47;;;9.60;100.00
12219;BME280;6172;42.646;23.344;2024-02-26T08:41:58;94144.25;;;9.79;100.00
12219;BME280;6172;42.646;23.344;2024-02-26T08:44:28;94139.72;;;9.73;100.00
12219;BME280;6172;42.646;23.344;2024-02-26T08:46:55;94132.66;;;9.95;100.00
12219;BME280;6172;42.646;23.344;2024-02-26T08:49:22;94139.06;;;10.04;100.00
12219;BME280;6172;42.646;23.344;2024-02-26T08:51:49;94136.34;;;9.85;100.00
12219;BME280;6172;42.646;23.344;2024-02-26T08:54:18;94134.97;;;9.96;100.00
12219;BME280;6172;42.646;23.344;2024-02-26T08:56:45;94139.63;;;9.96;100.00
12219;BME280;6172;42.646;23.344;2024-02-26T08:59:12;94144.25;;;10.15;100.00
12219;BME280;6172;42.646;23.344;2024-02-26T09:01:41;94142.47;;;10.24;100.00
12219;BME280;6172;42.646;23.344;2024-02-26T09:04:09;94131.78;;;10.33;100.00
12219;BME280;6172;42.646;23.344;2024-02-26T09:06:36;94134.72;;;10.23;100.00
12219;BME280;6172;42.646;23.344;2024-02-26T09:09:03;94135.16;;;10.37;100.00
12219;BME280;6172;42.646;23.344;2024-02-26T09:11:32;94123.19;;;10.51;100.00
12219;BME280;6172;42.646;23.344;2024-02-26T09:13:59;94129.66;;;10.41;100.00
12219;BME280;6172;42.646;23.344;2024-02-26T09:16:26;94125.38;;;10.56;100.00
12219;BME280;6172;42.646;23.344;2024-02-26T09:18:53;94123.34;;;10.44;100.00
12219;BME280;6172;42.646;23.344;2024-02-26T09:21:20;94118.66;;;10.61;100.00
12219;BME280;6172;42.646;23.344;2024-02-26T09:23:50;94112.47;;;10.44;100.00
12219;BME280;6172;42.646;23.344;2024-02-26T09:26:17;94117.97;;;10.73;100.00
12219;BME280;6172;42.646;23.344;2024-02-26T09:28:45;94112.28;;;10.51;100.00
12219;BME280;6172;42.646;23.344;2024-02-26T09:31:12;94139.25;;;10.29;100.00
12219;BME280;6172;42.646;23.344;2024-02-26T09:33:41;94112.16;;;10.71;100.00
12219;BME280;6172;42.646;23.344;2024-02-26T09:36:09;94112.91;;;10.87;100.00
12219;BME280;6172;42.646;23.344;2024-02-26T09:38:37;94120.56;;;10.92;100.00
12219;BME280;6172;42.646;23.344;2024-02-26T09:41:05;94114.84;;;11.03;100.00
12219;BME280;6172;42.646;23.344;2024-02-26T09:43:35;94104.31;;;10.89;100.00
12219;BME280;6172;42.646;23.344;2024-02-26T09:46:06;94109.66;;;10.92;100.00
12219;BME280;6172;42.646;23.344;2024-02-26T09:48:35;94112.69;;;11.10;100.00
12219;BME280;6172;42.646;23.344;2024-02-26T09:51:04;94109.34;;;10.90;100.00
12219;BME280;6172;42.646;23.344;2024-02-26T09:53:32;94109.63;;;11.08;100.00
12219;BME280;6172;42.646;23.344;2024-02-26T09:56:01;94100.19;;;11.25;100.00
12219;BME280;6172;42.646;23.344;2024-02-26T09:58:29;94104.09;;;11.12;100.00
12219;BME280;6172;42.646;23.344;2024-02-26T10:00:57;94098.66;;;11.24;100.00
12219;BME280;6172;42.646;23.344;2024-02-26T10:03:32;94089.97;;;11.29;100.00
12219;BME280;6172;42.646;23.344;2024-02-26T10:06:01;94102.38;;;11.46;100.00
12219;BME280;6172;42.646;23.344;2024-02-26T10:08:31;94096.59;;;11.28;100.00
12219;BME280;6172;42.646;23.344;2024-02-26T10:10:59;94097.81;;;11.27;100.00
12219;BME280;6172;42.646;23.344;2024-02-26T10:13:26;94092.22;;;11.18;100.00
12219;BME280;6172;42.646;23.344;2024-02-26T10:15:54;94088.16;;;11.39;100.00
12219;BME280;6172;42.646;23.344;2024-02-26T10:18:22;94090.88;;;11.10;100.00
12219;BME280;6172;42.646;23.344;2024-02-26T10:21:00;94073.97;;;11.15;100.00
12219;BME280;6172;42.646;23.344;2024-02-26T10:23:28;94089.38;;;11.38;100.00
12219;BME280;6172;42.646;23.344;2024-02-26T10:25:55;94070.81;;;11.45;100.00
12219;BME280;6172;42.646;23.344;2024-02-26T10:28:23;94073.09;;;11.47;100.00
12219;BME280;6172;42.646;23.344;2024-02-26T10:30:51;94067.97;;;11.36;100.00
12219;BME280;6172;42.646;23.344;2024-02-26T10:33:18;94069.38;;;11.12;100.00
12219;BME280;6172;42.646;23.344;2024-02-26T10:35:46;94059.09;;;11.32;100.00
12219;BME280;6172;42.646;23.344;2024-02-26T10:38:14;94073.78;;;11.51;100.00
12219;BME280;6172;42.646;23.344;2024-02-26T10:40:45;94064.13;;;11.34;100.00
12219;BME280;6172;42.646;23.344;2024-02-26T10:43:12;94057.75;;;11.24;100.00
12219;BME280;6172;42.646;23.344;2024-02-26T10:45:43;94050.44;;;11.21;100.00
12219;BME280;6172;42.646;23.344;2024-02-26T10:48:12;94054.00;;;11.34;100.00
12219;BME280;6172;42.646;23.344;2024-02-26T10:50:40;94051.88;;;11.26;100.00
12219;BME280;6172;42.646;23.344;2024-02-26T10:53:19;94052.56;;;11.42;100.00
12219;BME280;6172;42.646;23.344;2024-02-26T10:55:49;94053.75;;;11.29;100.00
12219;BME280;6172;42.646;23.344;2024-02-26T10:58:17;94046.03;;;11.40;100.00
12219;BME280;6172;42.646;23.344;2024-02-26T11:00:45;94041.66;;;11.30;100.00
12219;BME280;6172;42.646;23.344;2024-02-26T11:03:14;94050.97;;;11.45;100.00
12219;BME280;6172;42.646;23.344;2024-02-26T11:05:46;94039.41;;;11.53;100.00
12219;BME280;6172;42.646;23.344;2024-02-26T11:08:14;94048.59;;;11.59;100.00
12219;BME280;6172;42.646;23.344;2024-02-26T11:10:43;94043.25;;;11.27;100.00
12219;BME280;6172;42.646;23.344;2024-02-26T11:13:14;94041.22;;;11.44;100.00
12219;BME280;6172;42.646;23.344;2024-02-26T11:15:43;94050.75;;;11.64;100.00
12219;BME280;6172;42.646;23.344;2024-02-26T11:18:12;94047.06;;;11.83;100.00
12219;BME280;6172;42.646;23.344;2024-02-26T11:20:40;94036.91;;;11.71;100.00
12219;BME280;6172;42.646;23.344;2024-02-26T11:23:08;94048.81;;;11.65;100.00
12219;BME280;6172;42.646;23.344;2024-02-26T11:25:35;94055.78;;;11.78;100.00
12219;BME280;6172;42.646;23.344;2024-02-26T11:28:10;94046.19;;;11.86;100.00
12219;BME280;6172;42.646;23.344;2024-02-26T11:30:43;94048.81;;;11.77;100.00
12219;BME280;6172;42.646;23.344;2024-02-26T11:33:12;94045.00;;;11.87;100.00
12219;BME280;6172;42.646;23.344;2024-02-26T11:35:42;94041.91;;;11.85;100.00
12219;BME280;6172;42.646;23.344;2024-02-26T11:38:17;94046.97;;;11.99;100.00
12219;BME280;6172;42.646;23.344;2024-02-26T11:40:46;94035.38;;;11.95;100.00
12219;BME280;6172;42.646;23.344;2024-02-26T11:43:16;94042.16;;;12.03;100.00
12219;BME280;6172;42.646;23.344;2024-02-26T11:45:52;94033.94;;;11.78;100.00
12219;BME280;6172;42.646;23.344;2024-02-26T11:48:22;94040.38;;;11.97;100.00
12219;BME280;6172;42.646;23.344;2024-02-26T11:50:51;94034.84;;;11.88;100.00
12219;BME280;6172;42.646;23.344;2024-02-26T11:53:23;94032.56;;;11.86;100.00
12219;BME280;6172;42.646;23.344;2024-02-26T11:56:22;94028.72;;;11.96;100.00
12219;BME280;6172;42.646;23.344;2024-02-26T11:59:01;94029.47;;;11.84;100.00
12219;BME280;6172;42.646;23.344;2024-02-26T12:01:39;94019.44;;;11.94;100.00
12219;BME280;6172;42.646;23.344;2024-02-26T12:04:12;94030.34;;;11.81;100.00
12219;BME280;6172;42.646;23.344;2024-02-26T12:06:51;94034.28;;;11.93;100.00
12219;BME280;6172;42.646;23.344;2024-02-26T12:09:35;94038.22;;;11.79;100.00
12219;BME280;6172;42.646;23.344;2024-02-26T12:12:06;94033.63;;;11.89;100.00
12219;BME280;6172;42.646;23.344;2024-02-26T12:14:37;94035.94;;;11.90;100.00
12219;BME280;6172;42.646;23.344;2024-02-26T12:17:05;94036.25;;;11.92;100.00
12219;BME280;6172;42.646;23.344;2024-02-26T12:19:35;94033.81;;;12.07;100.00
12219;BME280;6172;42.646;23.344;2024-02-26T12:22:02;94031.28;;;12.37;100.00
12219;BME280;6172;42.646;23.344;2024-02-26T12:24:30;94025.38;;;12.39;100.00
12219;BME280;6172;42.646;23.344;2024-02-26T12:26:59;94032.50;;;12.36;98.71
12219;BME280;6172;42.646;23.344;2024-02-26T12:29:26;94037.19;;;12.48;97.71
12219;BME280;6172;42.646;23.344;2024-02-26T12:32:01;94025.53;;;12.69;94.32
12219;BME280;6172;42.646;23.344;2024-02-26T12:34:32;94044.50;;;12.39;94.32
12219;BME280;6172;42.646;23.344;2024-02-26T12:37:08;94031.38;;;12.46;96.83
12219;BME280;6172;42.646;23.344;2024-02-26T12:39:36;94040.44;;;12.68;92.59
12219;BME280;6172;42.646;23.344;2024-02-26T12:42:04;94031.09;;;12.79;88.69
12219;BME280;6172;42.646;23.344;2024-02-26T12:44:32;94031.47;;;12.90;89.32
12219;BME280;6172;42.646;23.344;2024-02-26T12:47:04;94025.13;;;12.93;90.25
12219;BME280;6172;42.646;23.344;2024-02-26T12:49:31;94020.09;;;12.91;88.12
12219;BME280;6172;42.646;23.344;2024-02-26T12:51:59;94021.09;;;12.85;84.23
12219;BME280;6172;42.646;23.344;2024-02-26T12:54:28;94019.03;;;12.89;86.40
12219;BME280;6172;42.646;23.344;2024-02-26T12:56:56;94036.63;;;12.88;82.81
12219;BME280;6172;42.646;23.344;2024-02-26T12:59:24;94018.44;;;12.94;83.16
12219;BME280;6172;42.646;23.344;2024-02-26T13:01:51;94011.13;;;12.91;80.36
12219;BME280;6172;42.646;23.344;2024-02-26T13:04:20;94011.91;;;12.91;81.64
12219;BME280;6172;42.646;23.344;2024-02-26T13:06:47;94023.13;;;12.93;81.83